Flight Track Log - Related Links

Times and Time Zones

All times are in EDT time to prevent confusion due to time zone crossing. See the AWE1287 flight status page for this flight to view local times or setup timezone preferences in your user account.

Time Position Orientation Groundspeed Altitude Reporting Facility
EDT Latitude Longitude Course Direction KTS MPH feet Rate Location/Type
Tue 01:06:02 PM 26.0750 -80.1367 318° Northwest 131 151 900  Level Miami Center
Tue 01:06:45 PM 26.0758 -80.0950 89° East 199 229 2,300 2,077 Climbing Miami Center
Tue 01:07:46 PM 26.1264 -80.0733 21° North 275 316 4,500 2,103 Climbing Miami Center
Tue 01:08:00 PM 26.2005 -79.9369 279° West  Level FlightAware Approximate
Tue 01:08:42 PM 26.1797 -80.1256 319° Northwest 301 346 6,400  Level Miami Center
Tue 01:09:00 PM 26.2175 -80.0644 279° West  Level FlightAware Approximate
Tue 01:09:42 PM 26.2408 -80.1900 317° Northwest 308 354 9,300  Level Miami Center
Tue 01:10:00 PM 26.2385 -80.1898 312° West  Level FlightAware Approximate
Tue 01:10:42 PM 26.3186 -80.2569 322° Northwest 313 360 11,400  Level Miami Center
Tue 01:11:00 PM 26.3174 -80.2840 318° Northwest  Level FlightAware Approximate
Tue 01:11:42 PM 26.3969 -80.3008 333° Northwest 335 386 14,100  Level Miami Center
Tue 01:12:42 PM 26.4917 -80.3594 331° Northwest 341 392 16,500 1,950 Climbing Miami Center
Tue 01:13:42 PM 26.5719 -80.4058 333° Northwest 353 406 18,000 1,750 Climbing Miami Center
Tue 01:14:42 PM 26.6839 -80.4442 343° North 371 427 20,000 1,750 Climbing Miami Center
Tue 01:15:42 PM 26.7792 -80.4750 344° North 382 440 21,500 1,650 Climbing Miami Center
Tue 01:16:42 PM 26.8972 -80.5158 343° North 393 452 23,300 1,500 Climbing Miami Center
Tue 01:17:42 PM 27.0089 -80.5519 344° North 398 458 24,500 1,400 Climbing Miami Center
Tue 01:18:42 PM 27.1214 -80.5694 352° North 404 465 26,100 1,350 Climbing Miami Center
Tue 01:19:42 PM 27.2378 -80.5850 353° North 410 472 27,200 1,350 Climbing Miami Center
Tue 01:20:42 PM 27.3542 -80.6028 352° North 415 478 28,800 1,100 Climbing Miami Center
Tue 01:21:42 PM 27.4711 -80.6114 356° North 415 478 29,400 1,050 Climbing Miami Center
Tue 01:22:42 PM 27.5883 -80.5986 North 415 478 30,900 750 Climbing Miami Center
Tue 01:23:42 PM 27.6956 -80.6419 340° North 410 472 30,900  Level Miami Center
Tue 01:24:42 PM 27.7894 -80.7225 323° Northwest 408 470 30,900  Level Miami Center
Tue 01:25:42 PM 27.8969 -80.7592 343° North 414 476 30,900  Level Miami Center
Tue 01:26:42 PM 28.0133 -80.7819 350° North 421 484 30,900 50 Level Miami Center
Tue 01:27:42 PM 28.1333 -80.8167 346° North 421 484 31,000 450 Climbing Miami Center
Tue 01:28:42 PM 28.2492 -80.8586 342° North 428 493 31,800 800 Climbing Miami Center
Tue 01:29:42 PM 28.3667 -80.9053 341° North 435 501 32,600 550 Climbing Miami Center
Tue 01:30:42 PM 28.4867 -80.9450 344° North 440 506 32,900 150 Climbing Miami Center
Tue 01:31:42 PM 28.6067 -80.9825 345° North 440 506 32,900  Level Miami Center
Tue 01:32:13 PM 28.6722 -81.0044 344° North 441 507 32,900 66 Level Jacksonville Center
Tue 01:33:13 PM 28.7919 -81.0375 346° North 433 498 33,000  Climbing Jacksonville Center
Tue 01:34:13 PM 28.9092 -81.0758 344° North 433 498 32,900 -50 Descending Jacksonville Center
Tue 01:35:13 PM 29.0286 -81.1092 346° North 433 498 32,900  Level Jacksonville Center
Tue 01:36:13 PM 29.1439 -81.1450 345° North 433 498 32,900  Level Jacksonville Center
Tue 01:37:13 PM 29.2592 -81.1836 344° North 433 498 32,900  Level Jacksonville Center
Tue 01:38:13 PM 29.3767 -81.2197 345° North 433 498 32,900  Level Jacksonville Center
Tue 01:39:13 PM 29.4897 -81.2511 346° North 433 498 32,900  Level Jacksonville Center
Tue 01:40:13 PM 29.6072 -81.2872 345° North 433 498 32,900  Level Jacksonville Center
Tue 01:41:13 PM 29.7244 -81.3261 344° North 433 498 32,900  Level Jacksonville Center
Tue 01:42:13 PM 29.8419 -81.3600 346° North 433 498 32,900  Level Jacksonville Center
Tue 01:43:13 PM 29.9633 -81.3964 345° North 438 504 32,900  Level Jacksonville Center
Tue 01:44:13 PM 30.0806 -81.4308 346° North 438 504 32,900  Level Jacksonville Center
Tue 01:45:13 PM 30.2017 -81.4336 359° North 433 498 32,900  Level Jacksonville Center
Tue 01:46:13 PM 30.3250 -81.4342 360° North 433 498 32,900  Level Jacksonville Center
Tue 01:47:13 PM 30.4606 -81.4322 North 433 498 32,900  Level Jacksonville Center
Tue 01:48:13 PM 30.5817 -81.4353 359° North 433 498 32,900  Level Jacksonville Center
Tue 01:49:13 PM 30.7069 -81.4356 360° North 440 506 32,900  Level Jacksonville Center
Tue 01:50:13 PM 30.8303 -81.4361 360° North 440 506 32,900  Level Jacksonville Center
Tue 01:51:13 PM 30.9536 -81.4367 360° North 440 506 32,900  Level Jacksonville Center
Tue 01:52:13 PM 31.0789 -81.4372 360° North 440 506 32,900  Level Jacksonville Center
Tue 01:53:13 PM 31.1997 -81.4281 North 439 505 32,900  Level Jacksonville Center
Tue 01:54:13 PM 31.3119 -81.3728 23° Northeast 434 499 32,900 50 Level Jacksonville Center
Tue 01:55:13 PM 31.4072 -81.3200 25° Northeast 427 491 33,000 50 Climbing Jacksonville Center
Tue 01:56:13 PM 31.5317 -81.2619 22° Northeast 427 491 33,000  Level Jacksonville Center
Tue 01:57:13 PM 31.6397 -81.2089 23° Northeast 427 491 33,000  Level Jacksonville Center
Tue 01:58:13 PM 31.7372 -81.1581 24° Northeast 427 491 33,000  Level Jacksonville Center
Tue 01:59:13 PM 31.8572 -81.0972 23° Northeast 427 491 33,000  Level Jacksonville Center
Tue 02:00:13 PM 31.9631 -81.0436 23° Northeast 422 486 33,000  Level Jacksonville Center
Tue 02:01:13 PM 32.0769 -80.9875 23° Northeast 422 486 33,000  Level Jacksonville Center
Tue 02:02:13 PM 32.1869 -80.9336 23° Northeast 417 480 33,000  Level Jacksonville Center
Tue 02:03:13 PM 32.2842 -80.8850 23° Northeast 422 486 33,000  Level Jacksonville Center
Tue 02:04:13 PM 32.4022 -80.8258 23° Northeast 417 480 33,000 -50 Level Jacksonville Center
Tue 02:05:13 PM 32.5119 -80.7689 24° Northeast 417 480 32,900 -50 Descending Jacksonville Center
Tue 02:06:14 PM 32.6217 -80.7122 24° Northeast 417 480 32,900  Level Jacksonville Center
Tue 02:07:13 PM 32.7292 -80.6578 23° Northeast 417 480 32,900 -303 Level Jacksonville Center
Tue 02:08:13 PM 32.8264 -80.6083 23° Northeast 417 480 32,300 -800 Descending Jacksonville Center
Tue 02:09:13 PM 32.9381 -80.5536 22° Northeast 417 480 31,300 -1,000 Descending Jacksonville Center
Tue 02:10:13 PM 33.0497 -80.4961 23° Northeast 422 486 30,300 -700 Descending Jacksonville Center
Tue 02:11:13 PM 33.1636 -80.4386 23° Northeast 428 493 29,900 -200 Descending Jacksonville Center
Tue 02:12:13 PM 33.2750 -80.3783 24° Northeast 433 498 29,900 -50 Level Jacksonville Center
Tue 02:13:13 PM 33.3864 -80.3181 24° Northeast 433 498 29,800 -550 Descending Jacksonville Center
Tue 02:14:13 PM 33.4806 -80.2281 39° Northeast 423 487 28,800 -1,500 Descending Jacksonville Center
Tue 02:15:13 PM 33.5747 -80.1356 39° Northeast 423 487 26,800 -1,900 Descending Jacksonville Center
Tue 02:16:13 PM 33.6731 -80.0600 33° Northeast 429 494 25,000 -1,700 Descending Jacksonville Center
Tue 02:17:13 PM 33.7911 -80.0139 18° North 417 480 23,400 -1,850 Descending Jacksonville Center
Tue 02:18:13 PM 33.9106 -80.0347 352° North 415 478 21,300 -1,700 Descending Jacksonville Center
Tue 02:19:13 PM 34.0242 -80.0789 342° North 415 478 20,000 -1,100 Descending Jacksonville Center
Tue 02:20:13 PM 34.1314 -80.1206 342° North 410 472 19,100 -942 Descending Jacksonville Center
Tue 02:21:14 PM 34.2367 -80.1622 342° North 404 465 18,100 -850 Descending Jacksonville Center
Tue 02:22:13 PM 34.3419 -80.2017 343° North 399 459 17,400 -1,210 Descending Jacksonville Center
Tue 02:23:13 PM 34.4447 -80.2389 343° North 394 453 15,700 -2,100 Descending Jacksonville Center
Tue 02:24:13 PM 34.5436 -80.2761 343° North 386 444 13,200 -2,422 Descending Jacksonville Center
Tue 02:25:02 PM 34.6289 -80.3153 339° North 369 425 11,300 -1,190 Descending Atlanta Center
Tue 02:26:09 PM 34.7203 -80.3694 334° Northwest 315 362 10,900 -197 Descending Atlanta Center
Tue 02:27:04 PM 34.7853 -80.4450 316° Northwest 355 409 10,900  Level Atlanta Center
Tue 02:28:11 PM 34.8608 -80.5406 314° West 371 427 10,900  Level Atlanta Center
Tue 02:29:12 PM 34.9322 -80.6286 315° West 365 420 10,900 -103 Level Atlanta Center
Tue 02:30:07 PM 34.9950 -80.7072 314° West 349 402 10,700 -793 Descending Atlanta Center
Tue 02:31:13 PM 35.0619 -80.7933 314° West 288 331 9,300 -850 Descending Atlanta Center
Tue 02:32:14 PM 35.1314 -80.8161 345° North 254 292 8,900 -776 Descending Atlanta Center
Tue 02:33:09 PM 35.1939 -80.8136 North 250 288 7,800 -1,500 Descending Atlanta Center
Tue 02:34:22 PM 35.2525 -80.7425 45° Northeast 244 281 5,700 -1,641 Descending Atlanta Center
Tue 02:35:17 PM 35.2969 -80.6850 47° Northeast 249 287 4,300 -885 Descending Atlanta Center
Tue 02:36:24 PM 35.3519 -80.7131 337° Northwest 236 272 3,900 -207 Descending Atlanta Center
Tue 02:37:13 PM 35.3408 -80.7697 256° West 212 244 3,900 -491 Level Atlanta Center
Tue 02:38:14 PM 35.3047 -80.8194 228° Southwest 185 213 3,000 -885 Descending Atlanta Center

Login

Don't have an account? Register now (free) for customized features, flight alerts, and more!